EWG2WE EDDS-LEPA
Flight info
| Callsign | EWG2WE |
|---|---|
| Flight time | 1h 36m |
| Altitude | 31000 |
| Route | ROTWE5B ROTWE Y126 TUBLO N850 NATOR DCT LUTIX DCT BENOT/N0444F370 DCT NEMOS DCT GEVEA DCT INCUS DCT BALSI DCT RETNO DCT TUPOX DCT MTG DCT DIVKO DCT VATIR DCT PIVUS DCT BODEQ DCT VERSO L129 LUNIK |
| Aircraft | A320/M-SDE3FGHIRWY/LB1 |
Departure
| Time | 2026-05-04 04:39 |
|---|---|
| Airport | Stuttgart Airport (EDDS) |
Arrival
| Time | 2026-05-04 06:15 |
|---|---|
| Airport | Palma de Mallorca Airport (LEPA) |
| Time | Latitude | Longitude | Altitude | Speed | Heading |
|---|---|---|---|---|---|
| 2026-05-04 04:29 | 48.68797 | 9.19675 | 1287 ft | 0 kts | 164° |
| 2026-05-04 04:33 | 48.68752 | 9.19706 | 1285 ft | 16 kts | 134° |
| 2026-05-04 04:33 | 48.68765 | 9.19859 | 1287 ft | 15 kts | 74° |
| 2026-05-04 04:33 | 48.68834 | 9.20017 | 1288 ft | 24 kts | 51° |
| 2026-05-04 04:34 | 48.68884 | 9.20250 | 1285 ft | 24 kts | 82° |
| 2026-05-04 04:34 | 48.68927 | 9.20509 | 1285 ft | 26 kts | 75° |
| 2026-05-04 04:34 | 48.68980 | 9.20770 | 1289 ft | 27 kts | 72° |
| 2026-05-04 04:34 | 48.69035 | 9.21042 | 1286 ft | 27 kts | 74° |
| 2026-05-04 04:35 | 48.69088 | 9.21322 | 1285 ft | 28 kts | 75° |
| 2026-05-04 04:35 | 48.69140 | 9.21609 | 1288 ft | 29 kts | 74° |
| 2026-05-04 04:35 | 48.69194 | 9.21902 | 1288 ft | 29 kts | 74° |
| 2026-05-04 04:35 | 48.69252 | 9.22198 | 1288 ft | 30 kts | 73° |
| 2026-05-04 04:36 | 48.69308 | 9.22499 | 1287 ft | 30 kts | 75° |
| 2026-05-04 04:36 | 48.69364 | 9.22804 | 1285 ft | 30 kts | 74° |
| 2026-05-04 04:36 | 48.69423 | 9.23111 | 1289 ft | 31 kts | 73° |
| 2026-05-04 04:36 | 48.69484 | 9.23421 | 1286 ft | 31 kts | 73° |
| 2026-05-04 04:37 | 48.69534 | 9.24309 | 1285 ft | 29 kts | 157° |
| 2026-05-04 04:37 | 48.69389 | 9.24335 | 1287 ft | 10 kts | 234° |
| 2026-05-04 04:38 | 48.69363 | 9.24186 | 1289 ft | 32 kts | 255° |
| 2026-05-04 04:38 | 48.69238 | 9.23480 | 1285 ft | 103 kts | 252° |
| 2026-05-04 04:38 | 48.68978 | 9.22165 | 1287 ft | 155 kts | 254° |
| 2026-05-04 04:38 | 48.68655 | 9.20461 | 1609 ft | 173 kts | 255° |
| 2026-05-04 04:39 | 48.68312 | 9.18666 | 2167 ft | 182 kts | 254° |
| 2026-05-04 04:39 | 48.67964 | 9.16826 | 2753 ft | 187 kts | 255° |
| 2026-05-04 04:39 | 48.67598 | 9.14880 | 3406 ft | 191 kts | 255° |
| 2026-05-04 04:39 | 48.67237 | 9.12939 | 4042 ft | 192 kts | 255° |
| 2026-05-04 04:40 | 48.66878 | 9.10982 | 4691 ft | 194 kts | 255° |
| 2026-05-04 04:40 | 48.66520 | 9.09020 | 5321 ft | 193 kts | 254° |
| 2026-05-04 04:40 | 48.66165 | 9.07061 | 5940 ft | 192 kts | 253° |
| 2026-05-04 04:40 | 48.65817 | 9.05120 | 6562 ft | 190 kts | 253° |
| 2026-05-04 04:41 | 48.65447 | 9.03121 | 7102 ft | 208 kts | 252° |
| 2026-05-04 04:41 | 48.65019 | 9.00965 | 7862 ft | 216 kts | 251° |
| 2026-05-04 04:41 | 48.64578 | 8.98772 | 8749 ft | 219 kts | 251° |
| 2026-05-04 04:41 | 48.64284 | 8.97313 | 9333 ft | 220 kts | 251° |
| 2026-05-04 04:42 | 48.63839 | 8.95092 | 10174 ft | 222 kts | 251° |
| 2026-05-04 04:42 | 48.63394 | 8.92846 | 10923 ft | 224 kts | 251° |
| 2026-05-04 04:42 | 48.62948 | 8.90579 | 11664 ft | 226 kts | 251° |
| 2026-05-04 04:42 | 48.62497 | 8.88289 | 12408 ft | 228 kts | 250° |
| 2026-05-04 04:43 | 48.61928 | 8.86044 | 13128 ft | 229 kts | 242° |
| 2026-05-04 04:43 | 48.61147 | 8.83941 | 13819 ft | 231 kts | 234° |
| 2026-05-04 04:43 | 48.60167 | 8.82015 | 14437 ft | 232 kts | 226° |
| 2026-05-04 04:43 | 48.59072 | 8.80220 | 15020 ft | 234 kts | 226° |
| 2026-05-04 04:44 | 48.57969 | 8.78406 | 15589 ft | 236 kts | 226° |
| 2026-05-04 04:44 | 48.56811 | 8.76501 | 15818 ft | 259 kts | 226° |
| 2026-05-04 04:44 | 48.55536 | 8.74402 | 16115 ft | 283 kts | 226° |
| 2026-05-04 04:44 | 48.54151 | 8.72124 | 16423 ft | 307 kts | 226° |
| 2026-05-04 04:45 | 48.52676 | 8.69622 | 16690 ft | 331 kts | 231° |
| 2026-05-04 04:45 | 48.51158 | 8.66884 | 17080 ft | 348 kts | 221° |
| 2026-05-04 04:45 | 48.49202 | 8.64677 | 17788 ft | 355 kts | 214° |
| 2026-05-04 04:47 | 48.36424 | 8.51968 | 21960 ft | 377 kts | 214° |
| 2026-05-04 04:47 | 48.34251 | 8.49736 | 22569 ft | 380 kts | 214° |
| 2026-05-04 04:47 | 48.32056 | 8.47477 | 23143 ft | 384 kts | 214° |
| 2026-05-04 04:47 | 48.29869 | 8.45231 | 23654 ft | 387 kts | 214° |
| 2026-05-04 04:48 | 48.27638 | 8.42950 | 24099 ft | 389 kts | 214° |
| 2026-05-04 04:49 | 48.18569 | 8.33728 | 25680 ft | 398 kts | 214° |
| 2026-05-04 04:49 | 48.16272 | 8.31394 | 26035 ft | 400 kts | 214° |
| 2026-05-04 04:49 | 48.13974 | 8.29013 | 26392 ft | 402 kts | 215° |
| 2026-05-04 04:49 | 48.11685 | 8.26590 | 26747 ft | 404 kts | 216° |
| 2026-05-04 04:50 | 48.09389 | 8.24136 | 27094 ft | 406 kts | 216° |
| 2026-05-04 04:50 | 48.07087 | 8.21671 | 27441 ft | 408 kts | 216° |
| 2026-05-04 04:50 | 48.04771 | 8.19201 | 27784 ft | 410 kts | 216° |
| 2026-05-04 04:50 | 48.02441 | 8.16730 | 28120 ft | 412 kts | 216° |
| 2026-05-04 04:51 | 48.00090 | 8.14251 | 28450 ft | 414 kts | 215° |
| 2026-05-04 04:51 | 47.97728 | 8.11772 | 28767 ft | 416 kts | 215° |
| 2026-05-04 04:51 | 47.95357 | 8.09290 | 29074 ft | 418 kts | 215° |
| 2026-05-04 04:51 | 47.92967 | 8.06790 | 29373 ft | 420 kts | 216° |
| 2026-05-04 04:52 | 47.90569 | 8.04283 | 29679 ft | 422 kts | 216° |
| 2026-05-04 04:52 | 47.88163 | 8.01766 | 29954 ft | 424 kts | 216° |
| 2026-05-04 04:52 | 47.85745 | 7.99238 | 30211 ft | 426 kts | 216° |
| 2026-05-04 04:52 | 47.83312 | 7.96698 | 30442 ft | 427 kts | 216° |
| 2026-05-04 04:53 | 47.80875 | 7.94156 | 30658 ft | 429 kts | 216° |
| 2026-05-04 04:53 | 47.78428 | 7.91605 | 30870 ft | 431 kts | 216° |
| 2026-05-04 04:53 | 47.75963 | 7.89041 | 31081 ft | 432 kts | 216° |
| 2026-05-04 04:53 | 47.73499 | 7.86483 | 31351 ft | 432 kts | 216° |
| 2026-05-04 04:54 | 47.71052 | 7.83949 | 31653 ft | 431 kts | 216° |
| 2026-05-04 04:54 | 47.68581 | 7.81396 | 31936 ft | 431 kts | 216° |
| 2026-05-04 04:54 | 47.66124 | 7.78856 | 32243 ft | 430 kts | 216° |
| 2026-05-04 04:54 | 47.63701 | 7.76347 | 32541 ft | 429 kts | 216° |
| 2026-05-04 04:55 | 47.61241 | 7.73801 | 32834 ft | 428 kts | 216° |
| 2026-05-04 04:55 | 47.58792 | 7.71271 | 33129 ft | 428 kts | 216° |
| 2026-05-04 04:55 | 47.56351 | 7.68755 | 33413 ft | 427 kts | 216° |
| 2026-05-04 04:55 | 47.53895 | 7.66284 | 33714 ft | 426 kts | 214° |
| 2026-05-04 04:56 | 47.51378 | 7.63966 | 34008 ft | 426 kts | 212° |
| 2026-05-04 04:56 | 47.48848 | 7.61796 | 34259 ft | 426 kts | 210° |
| 2026-05-04 04:56 | 47.46233 | 7.59637 | 34525 ft | 425 kts | 210° |
| 2026-05-04 04:56 | 47.43653 | 7.57519 | 34778 ft | 424 kts | 210° |
| 2026-05-04 04:57 | 47.41117 | 7.55416 | 35012 ft | 423 kts | 211° |
| 2026-05-04 04:57 | 47.38531 | 7.53238 | 35255 ft | 422 kts | 211° |
| 2026-05-04 04:57 | 47.36021 | 7.51099 | 35464 ft | 422 kts | 211° |
| 2026-05-04 04:57 | 47.33487 | 7.48920 | 35686 ft | 421 kts | 211° |
| 2026-05-04 04:58 | 47.30964 | 7.46742 | 35897 ft | 420 kts | 211° |
| 2026-05-04 04:58 | 47.28439 | 7.44564 | 36107 ft | 420 kts | 211° |
| 2026-05-04 04:58 | 47.25915 | 7.42398 | 36308 ft | 419 kts | 211° |
| 2026-05-04 04:58 | 47.23389 | 7.40245 | 36495 ft | 419 kts | 211° |
| 2026-05-04 04:59 | 47.20869 | 7.38105 | 36688 ft | 418 kts | 211° |
| 2026-05-04 04:59 | 47.18351 | 7.35966 | 36880 ft | 418 kts | 211° |
| 2026-05-04 04:59 | 47.15839 | 7.33828 | 37027 ft | 418 kts | 211° |
| 2026-05-04 04:59 | 47.13310 | 7.31678 | 37055 ft | 421 kts | 211° |
| 2026-05-04 05:00 | 47.08203 | 7.27353 | 37057 ft | 426 kts | 211° |
| 2026-05-04 05:01 | 47.00425 | 7.20784 | 37055 ft | 432 kts | 211° |
| 2026-05-04 05:01 | 46.95219 | 7.16396 | 37058 ft | 435 kts | 211° |
| 2026-05-04 05:02 | 46.89934 | 7.11953 | 37054 ft | 437 kts | 211° |
| 2026-05-04 05:02 | 46.84666 | 7.07535 | 37055 ft | 438 kts | 211° |
| 2026-05-04 05:03 | 46.79373 | 7.03106 | 37057 ft | 438 kts | 211° |
| 2026-05-04 05:04 | 46.68807 | 6.94289 | 37068 ft | 437 kts | 211° |
| 2026-05-04 05:04 | 46.63521 | 6.89891 | 37064 ft | 438 kts | 211° |
| 2026-05-04 05:06 | 46.42312 | 6.72367 | 37056 ft | 438 kts | 211° |
| 2026-05-04 05:07 | 46.37006 | 6.68006 | 37058 ft | 439 kts | 211° |
| 2026-05-04 05:07 | 46.31692 | 6.63652 | 37057 ft | 439 kts | 211° |
| 2026-05-04 05:09 | 46.07809 | 6.44185 | 37066 ft | 438 kts | 211° |
| 2026-05-04 05:10 | 46.02497 | 6.39872 | 37072 ft | 438 kts | 211° |
| 2026-05-04 05:10 | 45.97188 | 6.35584 | 37073 ft | 437 kts | 211° |
| 2026-05-04 05:11 | 45.91875 | 6.31305 | 37076 ft | 437 kts | 211° |
| 2026-05-04 05:11 | 45.86578 | 6.27039 | 37076 ft | 436 kts | 211° |
| 2026-05-04 05:12 | 45.81285 | 6.22796 | 37076 ft | 436 kts | 211° |
| 2026-05-04 05:12 | 45.75991 | 6.18559 | 37070 ft | 435 kts | 211° |
| 2026-05-04 05:13 | 45.70704 | 6.14329 | 37055 ft | 435 kts | 211° |
| 2026-05-04 05:13 | 45.65412 | 6.10111 | 37056 ft | 435 kts | 211° |
| 2026-05-04 05:14 | 45.60127 | 6.05905 | 37053 ft | 434 kts | 211° |
| 2026-05-04 05:14 | 45.54847 | 6.01713 | 37052 ft | 434 kts | 211° |
| 2026-05-04 05:15 | 45.49594 | 5.97551 | 37051 ft | 434 kts | 209° |
| 2026-05-04 05:15 | 45.43844 | 5.94834 | 37045 ft | 439 kts | 195° |
| 2026-05-04 05:16 | 45.37873 | 5.92990 | 37044 ft | 439 kts | 195° |
| 2026-05-04 05:16 | 45.31902 | 5.91138 | 37045 ft | 439 kts | 195° |
| 2026-05-04 05:17 | 45.25923 | 5.89280 | 37039 ft | 439 kts | 195° |
| 2026-05-04 05:17 | 45.19962 | 5.87423 | 37036 ft | 439 kts | 195° |
| 2026-05-04 05:18 | 45.13991 | 5.85567 | 37036 ft | 439 kts | 195° |
| 2026-05-04 05:18 | 45.08031 | 5.83722 | 37031 ft | 438 kts | 195° |
| 2026-05-04 05:19 | 45.02073 | 5.81878 | 37033 ft | 439 kts | 195° |
| 2026-05-04 05:19 | 44.96102 | 5.80030 | 37030 ft | 439 kts | 195° |
| 2026-05-04 05:20 | 44.90128 | 5.78200 | 37035 ft | 439 kts | 195° |
| 2026-05-04 05:20 | 44.84164 | 5.76375 | 37118 ft | 438 kts | 195° |
| 2026-05-04 05:21 | 44.81202 | 5.75468 | 37017 ft | 433 kts | 195° |
| 2026-05-04 05:21 | 44.78270 | 5.74573 | 37013 ft | 431 kts | 195° |
| 2026-05-04 05:21 | 44.72444 | 5.72802 | 37018 ft | 431 kts | 195° |
| 2026-05-04 05:22 | 44.66574 | 5.71014 | 37027 ft | 432 kts | 195° |
| 2026-05-04 05:22 | 44.60698 | 5.69227 | 37039 ft | 432 kts | 195° |
| 2026-05-04 05:23 | 44.54816 | 5.67436 | 37054 ft | 433 kts | 195° |
| 2026-05-04 05:23 | 44.48924 | 5.65643 | 37066 ft | 433 kts | 195° |
| 2026-05-04 05:24 | 44.43031 | 5.63874 | 37071 ft | 433 kts | 195° |
| 2026-05-04 05:24 | 44.37185 | 5.61905 | 37073 ft | 430 kts | 203° |
| 2026-05-04 05:25 | 44.31627 | 5.58852 | 37079 ft | 429 kts | 204° |
| 2026-05-04 05:25 | 44.26069 | 5.55793 | 37084 ft | 429 kts | 204° |
| 2026-05-04 05:26 | 44.20505 | 5.52758 | 37083 ft | 429 kts | 204° |
| 2026-05-04 05:26 | 44.14942 | 5.49738 | 37085 ft | 429 kts | 204° |
| 2026-05-04 05:28 | 43.92984 | 5.36932 | 37076 ft | 427 kts | 210° |
| 2026-05-04 05:29 | 43.88586 | 5.33688 | 37071 ft | 427 kts | 210° |
| 2026-05-04 05:29 | 43.83338 | 5.29825 | 37070 ft | 427 kts | 210° |
| 2026-05-04 05:31 | 43.62381 | 5.14504 | 37065 ft | 426 kts | 210° |
| 2026-05-04 05:32 | 43.57137 | 5.10684 | 37072 ft | 426 kts | 210° |
| 2026-05-04 05:33 | 43.49274 | 5.04967 | 37037 ft | 426 kts | 210° |
| 2026-05-04 05:33 | 43.44035 | 5.01164 | 37037 ft | 426 kts | 210° |
| 2026-05-04 05:34 | 43.38788 | 4.97369 | 37038 ft | 426 kts | 210° |
| 2026-05-04 05:34 | 43.33535 | 4.93587 | 37033 ft | 426 kts | 210° |
| 2026-05-04 05:35 | 43.28290 | 4.89820 | 37028 ft | 426 kts | 210° |
| 2026-05-04 05:35 | 43.23035 | 4.86046 | 37036 ft | 426 kts | 210° |
| 2026-05-04 05:36 | 43.17824 | 4.82304 | 37033 ft | 426 kts | 210° |
| 2026-05-04 05:36 | 43.12562 | 4.78536 | 37019 ft | 426 kts | 210° |
| 2026-05-04 05:37 | 43.07296 | 4.74782 | 37020 ft | 426 kts | 210° |
| 2026-05-04 05:37 | 43.02042 | 4.71044 | 37020 ft | 425 kts | 210° |
| 2026-05-04 05:38 | 42.94201 | 4.65467 | 37010 ft | 425 kts | 210° |
| 2026-05-04 05:38 | 42.88953 | 4.61743 | 37010 ft | 425 kts | 210° |
| 2026-05-04 05:39 | 42.81080 | 4.56169 | 37005 ft | 425 kts | 210° |
| 2026-05-04 05:40 | 42.73202 | 4.50605 | 37003 ft | 425 kts | 210° |
| 2026-05-04 05:40 | 42.67956 | 4.46911 | 37002 ft | 425 kts | 210° |
| 2026-05-04 05:41 | 42.62702 | 4.43218 | 36999 ft | 425 kts | 211° |
| 2026-05-04 05:41 | 42.57454 | 4.39533 | 36993 ft | 425 kts | 211° |
| 2026-05-04 05:42 | 42.52199 | 4.35855 | 36986 ft | 425 kts | 211° |
| 2026-05-04 05:42 | 42.46948 | 4.32188 | 36986 ft | 425 kts | 211° |
| 2026-05-04 05:43 | 42.41697 | 4.28524 | 36991 ft | 425 kts | 211° |
| 2026-05-04 05:45 | 42.20702 | 4.13957 | 36992 ft | 423 kts | 211° |
| 2026-05-04 05:47 | 42.00061 | 3.98948 | 36995 ft | 420 kts | 213° |
| 2026-05-04 05:47 | 41.94931 | 3.95195 | 36994 ft | 420 kts | 212° |
| 2026-05-04 05:48 | 41.89366 | 3.92639 | 36986 ft | 428 kts | 195° |
| 2026-05-04 05:48 | 41.86472 | 3.91991 | 36979 ft | 416 kts | 195° |
| 2026-05-04 05:48 | 41.83636 | 3.91350 | 36982 ft | 411 kts | 195° |
| 2026-05-04 05:49 | 41.80818 | 3.90703 | 36771 ft | 410 kts | 196° |
| 2026-05-04 05:49 | 41.78012 | 3.90052 | 36510 ft | 409 kts | 196° |
| 2026-05-04 05:49 | 41.75210 | 3.89399 | 36246 ft | 409 kts | 196° |
| 2026-05-04 05:49 | 41.72402 | 3.88745 | 35990 ft | 409 kts | 195° |
| 2026-05-04 05:51 | 41.52704 | 3.84225 | 34265 ft | 409 kts | 195° |
| 2026-05-04 05:51 | 41.49902 | 3.83583 | 34027 ft | 408 kts | 195° |
| 2026-05-04 05:52 | 41.47106 | 3.82943 | 33757 ft | 406 kts | 195° |
| 2026-05-04 05:52 | 41.44327 | 3.82310 | 33479 ft | 404 kts | 195° |
| 2026-05-04 05:52 | 41.41561 | 3.81683 | 33212 ft | 402 kts | 195° |
| 2026-05-04 05:52 | 41.38812 | 3.81054 | 32945 ft | 400 kts | 195° |
| 2026-05-04 05:53 | 41.36081 | 3.80427 | 32679 ft | 398 kts | 195° |
| 2026-05-04 05:54 | 41.17706 | 3.74849 | 30893 ft | 377 kts | 205° |
| 2026-05-04 05:55 | 41.15256 | 3.73653 | 30646 ft | 375 kts | 205° |
| 2026-05-04 05:55 | 41.12815 | 3.72456 | 30403 ft | 373 kts | 205° |
| 2026-05-04 05:55 | 41.10388 | 3.71267 | 30161 ft | 371 kts | 205° |
| 2026-05-04 05:55 | 41.07975 | 3.70088 | 29896 ft | 369 kts | 205° |
| 2026-05-04 05:56 | 41.05567 | 3.68918 | 29609 ft | 368 kts | 205° |
| 2026-05-04 05:56 | 41.03167 | 3.67754 | 29331 ft | 366 kts | 205° |
| 2026-05-04 05:56 | 41.00796 | 3.66605 | 29053 ft | 365 kts | 205° |
| 2026-05-04 05:56 | 40.98407 | 3.65444 | 28782 ft | 371 kts | 205° |
| 2026-05-04 05:57 | 40.95919 | 3.64223 | 28509 ft | 390 kts | 205° |
| 2026-05-04 05:57 | 40.93320 | 3.62951 | 28239 ft | 407 kts | 205° |
| 2026-05-04 05:57 | 40.90624 | 3.61639 | 27959 ft | 418 kts | 204° |
| 2026-05-04 05:57 | 40.87885 | 3.60316 | 27494 ft | 419 kts | 204° |
| 2026-05-04 05:58 | 40.85145 | 3.59003 | 27011 ft | 418 kts | 204° |
| 2026-05-04 05:58 | 40.82414 | 3.57701 | 26530 ft | 416 kts | 204° |
| 2026-05-04 05:58 | 40.79688 | 3.56396 | 26071 ft | 422 kts | 204° |
| 2026-05-04 05:58 | 40.76871 | 3.55034 | 25565 ft | 438 kts | 204° |
| 2026-05-04 05:59 | 40.73994 | 3.53643 | 25061 ft | 442 kts | 203° |
| 2026-05-04 05:59 | 40.71108 | 3.52250 | 24523 ft | 441 kts | 203° |
| 2026-05-04 05:59 | 40.68234 | 3.50866 | 23995 ft | 439 kts | 203° |
| 2026-05-04 05:59 | 40.65370 | 3.49492 | 23425 ft | 437 kts | 203° |
| 2026-05-04 06:00 | 40.62524 | 3.48129 | 22847 ft | 434 kts | 203° |
| 2026-05-04 06:00 | 40.59725 | 3.46786 | 22311 ft | 431 kts | 203° |
| 2026-05-04 06:00 | 40.56921 | 3.45441 | 21764 ft | 428 kts | 203° |
| 2026-05-04 06:00 | 40.54126 | 3.44104 | 21231 ft | 425 kts | 203° |
| 2026-05-04 06:01 | 40.51359 | 3.42780 | 20698 ft | 422 kts | 203° |
| 2026-05-04 06:01 | 40.48607 | 3.41464 | 20175 ft | 419 kts | 203° |
| 2026-05-04 06:03 | 40.30133 | 3.31586 | 16560 ft | 401 kts | 206° |
| 2026-05-04 06:03 | 40.27579 | 3.30154 | 16079 ft | 398 kts | 206° |
| 2026-05-04 06:05 | 40.10035 | 3.20520 | 12743 ft | 384 kts | 205° |
| 2026-05-04 06:05 | 40.05158 | 3.17837 | 11641 ft | 376 kts | 205° |
| 2026-05-04 06:05 | 40.02761 | 3.16518 | 10977 ft | 372 kts | 204° |
| 2026-05-04 06:06 | 40.00382 | 3.15213 | 10306 ft | 369 kts | 204° |
| 2026-05-04 06:06 | 39.98052 | 3.13935 | 9608 ft | 367 kts | 204° |
| 2026-05-04 06:06 | 39.95711 | 3.12649 | 8886 ft | 364 kts | 204° |
| 2026-05-04 06:06 | 39.93389 | 3.11376 | 8165 ft | 360 kts | 203° |
| 2026-05-04 06:07 | 39.91084 | 3.10117 | 7460 ft | 358 kts | 203° |
| 2026-05-04 06:07 | 39.88799 | 3.08871 | 6757 ft | 355 kts | 203° |
| 2026-05-04 06:07 | 39.86861 | 3.07813 | 6146 ft | 352 kts | 203° |
| 2026-05-04 06:07 | 39.84598 | 3.06576 | 5404 ft | 349 kts | 203° |
| 2026-05-04 06:08 | 39.82395 | 3.05373 | 4706 ft | 345 kts | 203° |
| 2026-05-04 06:08 | 39.80201 | 3.04178 | 4251 ft | 335 kts | 203° |
| 2026-05-04 06:08 | 39.78115 | 3.03046 | 4120 ft | 315 kts | 203° |
| 2026-05-04 06:08 | 39.76136 | 3.01974 | 3989 ft | 298 kts | 203° |
| 2026-05-04 06:09 | 39.74271 | 3.00961 | 3868 ft | 282 kts | 203° |
| 2026-05-04 06:09 | 39.72526 | 3.00011 | 3742 ft | 268 kts | 203° |
| 2026-05-04 06:11 | 39.63377 | 2.92814 | 2920 ft | 199 kts | 238° |
| 2026-05-04 06:11 | 39.62664 | 2.91292 | 2701 ft | 196 kts | 238° |
| 2026-05-04 06:13 | 39.58094 | 2.81608 | 1116 ft | 145 kts | 236° |
| 2026-05-04 06:14 | 39.55130 | 2.75294 | 33 ft | 134 kts | 237° |
| 2026-05-04 06:14 | 39.54676 | 2.74324 | 37 ft | 57 kts | 239° |
| 2026-05-04 06:15 | 39.54570 | 2.74089 | 35 ft | 32 kts | 250° |
| 2026-05-04 06:15 | 39.54544 | 2.73820 | 35 ft | 28 kts | 273° |
| 2026-05-04 06:15 | 39.54597 | 2.73636 | 36 ft | 18 kts | 329° |
| 2026-05-04 06:15 | 39.54694 | 2.73592 | 34 ft | 11 kts | 330° |
| 2026-05-04 06:16 | 39.54733 | 2.73586 | 36 ft | 5 kts | 35° |
| 2026-05-04 06:16 | 39.54742 | 2.73616 | 36 ft | 3 kts | 62° |
| 2026-05-04 06:16 | 39.54753 | 2.73638 | 36 ft | 4 kts | 57° |
| 2026-05-04 06:16 | 39.54759 | 2.73652 | 35 ft | 0 kts | 58° |